sensor_id;sensor_type;location;lat;lon;timestamp;P1;durP1;ratioP1;P2;durP2;ratioP2
37495;SDS011;23346;52.088;4.746;2022-09-25T00:00:44;23.63;;;10.03;;
37495;SDS011;23346;52.088;4.746;2022-09-25T00:03:11;28.60;;;13.50;;
37495;SDS011;23346;52.088;4.746;2022-09-25T00:05:38;24.27;;;10.37;;
37495;SDS011;23346;52.088;4.746;2022-09-25T00:08:04;28.10;;;10.97;;
37495;SDS011;23346;52.088;4.746;2022-09-25T00:10:30;31.33;;;13.33;;
37495;SDS011;23346;52.088;4.746;2022-09-25T00:12:56;20.97;;;10.20;;
37495;SDS011;23346;52.088;4.746;2022-09-25T00:15:22;24.57;;;10.93;;
37495;SDS011;23346;52.088;4.746;2022-09-25T00:17:48;28.83;;;10.17;;
37495;SDS011;23346;52.088;4.746;2022-09-25T00:20:15;38.67;;;22.70;;
37495;SDS011;23346;52.088;4.746;2022-09-25T00:22:41;23.80;;;13.43;;
37495;SDS011;23346;52.088;4.746;2022-09-25T00:25:10;33.80;;;19.57;;
37495;SDS011;23346;52.088;4.746;2022-09-25T00:27:40;34.17;;;14.93;;
37495;SDS011;23346;52.088;4.746;2022-09-25T00:30:07;42.43;;;30.43;;
37495;SDS011;23346;52.088;4.746;2022-09-25T00:32:33;36.60;;;24.40;;
37495;SDS011;23346;52.088;4.746;2022-09-25T00:34:59;29.47;;;13.60;;
37495;SDS011;23346;52.088;4.746;2022-09-25T00:37:25;33.63;;;16.20;;
37495;SDS011;23346;52.088;4.746;2022-09-25T00:39:52;26.50;;;11.33;;
37495;SDS011;23346;52.088;4.746;2022-09-25T00:42:19;29.53;;;10.40;;
37495;SDS011;23346;52.088;4.746;2022-09-25T00:49:53;28.80;;;11.50;;
37495;SDS011;23346;52.088;4.746;2022-09-25T00:52:20;30.87;;;11.67;;
37495;SDS011;23346;52.088;4.746;2022-09-25T00:54:52;30.17;;;10.50;;
37495;SDS011;23346;52.088;4.746;2022-09-25T00:57:19;30.40;;;10.63;;
37495;SDS011;23346;52.088;4.746;2022-09-25T00:59:48;25.70;;;10.93;;
37495;SDS011;23346;52.088;4.746;2022-09-25T09:06:50;5.78;;;0.90;;
37495;SDS011;23346;52.088;4.746;2022-09-25T09:12:19;4.22;;;1.48;;
37495;SDS011;23346;52.088;4.746;2022-09-25T09:18:01;2.90;;;0.60;;
37495;SDS011;23346;52.088;4.746;2022-09-25T09:20:33;3.83;;;0.70;;
37495;SDS011;23346;52.088;4.746;2022-09-25T09:23:02;5.18;;;0.93;;
37495;SDS011;23346;52.088;4.746;2022-09-25T09:31:14;3.67;;;0.57;;
37495;SDS011;23346;52.088;4.746;2022-09-25T09:36:35;3.00;;;0.50;;
37495;SDS011;23346;52.088;4.746;2022-09-25T09:39:20;5.22;;;0.45;;
37495;SDS011;23346;52.088;4.746;2022-09-25T09:51:50;2.60;;;0.25;;
37495;SDS011;23346;52.088;4.746;2022-09-25T09:54:23;1.17;;;0.40;;
37495;SDS011;23346;52.088;4.746;2022-09-25T09:56:51;1.60;;;0.22;;
37495;SDS011;23346;52.088;4.746;2022-09-25T09:59:24;4.80;;;0.57;;
37495;SDS011;23346;52.088;4.746;2022-09-25T10:01:57;2.53;;;0.32;;
37495;SDS011;23346;52.088;4.746;2022-09-25T10:04:25;1.55;;;0.28;;
37495;SDS011;23346;52.088;4.746;2022-09-25T10:07:13;5.00;;;0.63;;
37495;SDS011;23346;52.088;4.746;2022-09-25T10:09:42;1.65;;;0.35;;
37495;SDS011;23346;52.088;4.746;2022-09-25T10:12:12;2.70;;;0.45;;
37495;SDS011;23346;52.088;4.746;2022-09-25T10:14:42;0.90;;;0.30;;
37495;SDS011;23346;52.088;4.746;2022-09-25T10:17:09;1.92;;;0.30;;
37495;SDS011;23346;52.088;4.746;2022-09-25T10:19:56;2.92;;;0.45;;
37495;SDS011;23346;52.088;4.746;2022-09-25T10:22:31;1.65;;;0.40;;
37495;SDS011;23346;52.088;4.746;2022-09-25T10:24:59;2.40;;;0.50;;
37495;SDS011;23346;52.088;4.746;2022-09-25T10:27:27;1.05;;;0.20;;
37495;SDS011;23346;52.088;4.746;2022-09-25T10:35:20;1.73;;;0.40;;
37495;SDS011;23346;52.088;4.746;2022-09-25T10:37:47;1.85;;;0.20;;
37495;SDS011;23346;52.088;4.746;2022-09-25T10:40:22;1.63;;;0.22;;
37495;SDS011;23346;52.088;4.746;2022-09-25T10:42:48;1.40;;;0.30;;
37495;SDS011;23346;52.088;4.746;2022-09-25T10:47:48;1.75;;;0.28;;
37495;SDS011;23346;52.088;4.746;2022-09-25T10:50:34;0.98;;;0.20;;
37495;SDS011;23346;52.088;4.746;2022-09-25T10:53:01;3.22;;;0.30;;
37495;SDS011;23346;52.088;4.746;2022-09-25T10:55:35;1.75;;;0.30;;
37495;SDS011;23346;52.088;4.746;2022-09-25T11:00:34;1.48;;;0.28;;
37495;SDS011;23346;52.088;4.746;2022-09-25T11:03:03;1.30;;;0.30;;
37495;SDS011;23346;52.088;4.746;2022-09-25T11:05:31;2.50;;;0.30;;
37495;SDS011;23346;52.088;4.746;2022-09-25T11:08:01;2.58;;;0.40;;
37495;SDS011;23346;52.088;4.746;2022-09-25T11:10:29;2.47;;;0.50;;
37495;SDS011;23346;52.088;4.746;2022-09-25T11:12:57;2.58;;;0.50;;
37495;SDS011;23346;52.088;4.746;2022-09-25T11:15:25;6.53;;;0.80;;
37495;SDS011;23346;52.088;4.746;2022-09-25T11:17:55;2.53;;;0.40;;
37495;SDS011;23346;52.088;4.746;2022-09-25T11:20:27;4.05;;;0.50;;
37495;SDS011;23346;52.088;4.746;2022-09-25T11:28:02;1.13;;;0.30;;
37495;SDS011;23346;52.088;4.746;2022-09-25T11:30:33;3.65;;;0.45;;
37495;SDS011;23346;52.088;4.746;2022-09-25T11:33:05;1.80;;;0.35;;
37495;SDS011;23346;52.088;4.746;2022-09-25T11:35:40;1.55;;;0.30;;
37495;SDS011;23346;52.088;4.746;2022-09-25T11:40:48;4.28;;;0.47;;
37495;SDS011;23346;52.088;4.746;2022-09-25T11:43:54;3.55;;;0.82;;
37495;SDS011;23346;52.088;4.746;2022-09-25T11:49:15;2.33;;;0.43;;
37495;SDS011;23346;52.088;4.746;2022-09-25T11:57:12;2.17;;;0.40;;
37495;SDS011;23346;52.088;4.746;2022-09-25T11:59:43;1.50;;;0.50;;
37495;SDS011;23346;52.088;4.746;2022-09-25T12:04:40;3.83;;;0.60;;
37495;SDS011;23346;52.088;4.746;2022-09-25T12:07:19;5.03;;;0.70;;
37495;SDS011;23346;52.088;4.746;2022-09-25T12:15:16;2.72;;;0.50;;
37495;SDS011;23346;52.088;4.746;2022-09-25T12:17:52;2.92;;;0.50;;
37495;SDS011;23346;52.088;4.746;2022-09-25T12:20:22;1.77;;;0.63;;
37495;SDS011;23346;52.088;4.746;2022-09-25T12:22:57;2.58;;;0.30;;
37495;SDS011;23346;52.088;4.746;2022-09-25T12:25:47;4.40;;;0.75;;
37495;SDS011;23346;52.088;4.746;2022-09-25T12:33:52;1.02;;;0.30;;
37495;SDS011;23346;52.088;4.746;2022-09-25T12:39:00;3.40;;;0.47;;
37495;SDS011;23346;52.088;4.746;2022-09-25T12:41:37;1.90;;;0.43;;
37495;SDS011;23346;52.088;4.746;2022-09-25T12:46:33;6.00;;;1.00;;
37495;SDS011;23346;52.088;4.746;2022-09-25T12:51:42;1.92;;;0.57;;
37495;SDS011;23346;52.088;4.746;2022-09-25T12:54:18;0.55;;;0.50;;
37495;SDS011;23346;52.088;4.746;2022-09-25T12:59:20;6.40;;;0.95;;
37495;SDS011;23346;52.088;4.746;2022-09-25T13:09:44;1.58;;;0.50;;
37495;SDS011;23346;52.088;4.746;2022-09-25T13:15:04;4.15;;;0.90;;
37495;SDS011;23346;52.088;4.746;2022-09-25T13:17:33;2.65;;;0.45;;
37495;SDS011;23346;52.088;4.746;2022-09-25T13:22:44;2.33;;;0.50;;
37495;SDS011;23346;52.088;4.746;2022-09-25T13:25:13;1.90;;;0.52;;
37495;SDS011;23346;52.088;4.746;2022-09-25T13:27:42;3.75;;;0.60;;
37495;SDS011;23346;52.088;4.746;2022-09-25T13:30:25;1.52;;;0.50;;
37495;SDS011;23346;52.088;4.746;2022-09-25T13:32:55;1.75;;;0.50;;
37495;SDS011;23346;52.088;4.746;2022-09-25T13:35:27;4.03;;;0.50;;
37495;SDS011;23346;52.088;4.746;2022-09-25T13:37:54;3.13;;;0.43;;
37495;SDS011;23346;52.088;4.746;2022-09-25T13:40:25;0.88;;;0.47;;
37495;SDS011;23346;52.088;4.746;2022-09-25T13:43:39;3.58;;;0.60;;
37495;SDS011;23346;52.088;4.746;2022-09-25T13:48:37;4.07;;;0.80;;
37495;SDS011;23346;52.088;4.746;2022-09-25T13:53:58;2.40;;;0.40;;
37495;SDS011;23346;52.088;4.746;2022-09-25T14:01:41;1.10;;;0.47;;
37495;SDS011;23346;52.088;4.746;2022-09-25T14:04:09;0.70;;;0.40;;
37495;SDS011;23346;52.088;4.746;2022-09-25T14:06:35;4.13;;;0.40;;
37495;SDS011;23346;52.088;4.746;2022-09-25T14:09:22;2.38;;;0.40;;
37495;SDS011;23346;52.088;4.746;2022-09-25T14:14:31;3.85;;;0.57;;
37495;SDS011;23346;52.088;4.746;2022-09-25T14:16:59;1.30;;;0.43;;
37495;SDS011;23346;52.088;4.746;2022-09-25T14:19:26;2.05;;;0.40;;
37495;SDS011;23346;52.088;4.746;2022-09-25T14:21:53;2.03;;;0.50;;
37495;SDS011;23346;52.088;4.746;2022-09-25T14:24:20;2.53;;;0.45;;
37495;SDS011;23346;52.088;4.746;2022-09-25T14:26:48;0.47;;;0.30;;
37495;SDS011;23346;52.088;4.746;2022-09-25T14:29:17;2.42;;;0.60;;
37495;SDS011;23346;52.088;4.746;2022-09-25T14:31:48;2.03;;;0.38;;
37495;SDS011;23346;52.088;4.746;2022-09-25T14:39:39;1.65;;;0.30;;
37495;SDS011;23346;52.088;4.746;2022-09-25T14:47:21;0.68;;;0.20;;
37495;SDS011;23346;52.088;4.746;2022-09-25T14:49:50;2.20;;;0.22;;
37495;SDS011;23346;52.088;4.746;2022-09-25T14:52:21;1.10;;;0.30;;
37495;SDS011;23346;52.088;4.746;2022-09-25T14:54:48;0.47;;;0.20;;
37495;SDS011;23346;52.088;4.746;2022-09-25T14:57:16;1.85;;;0.30;;
37495;SDS011;23346;52.088;4.746;2022-09-25T14:59:44;2.38;;;0.40;;
37495;SDS011;23346;52.088;4.746;2022-09-25T15:02:34;0.80;;;0.13;;
37495;SDS011;23346;52.088;4.746;2022-09-25T15:07:45;3.35;;;0.50;;
37495;SDS011;23346;52.088;4.746;2022-09-25T15:15:41;2.00;;;0.43;;
37495;SDS011;23346;52.088;4.746;2022-09-25T15:18:27;1.23;;;0.30;;
37495;SDS011;23346;52.088;4.746;2022-09-25T15:20:54;1.40;;;0.55;;
37495;SDS011;23346;52.088;4.746;2022-09-25T15:23:20;2.20;;;0.30;;
37495;SDS011;23346;52.088;4.746;2022-09-25T15:25:47;4.63;;;0.40;;
37495;SDS011;23346;52.088;4.746;2022-09-25T15:28:15;9.50;;;0.50;;
37495;SDS011;23346;52.088;4.746;2022-09-25T15:30:42;1.52;;;0.57;;
37495;SDS011;23346;52.088;4.746;2022-09-25T15:33:31;0.28;;;0.28;;
37495;SDS011;23346;52.088;4.746;2022-09-25T15:36:00;0.60;;;0.50;;
37495;SDS011;23346;52.088;4.746;2022-09-25T15:38:37;1.10;;;0.50;;
37495;SDS011;23346;52.088;4.746;2022-09-25T15:41:06;2.95;;;0.50;;
37495;SDS011;23346;52.088;4.746;2022-09-25T15:43:33;4.72;;;0.40;;
37495;SDS011;23346;52.088;4.746;2022-09-25T15:48:29;2.00;;;0.43;;
37495;SDS011;23346;52.088;4.746;2022-09-25T15:51:03;1.25;;;0.30;;
37495;SDS011;23346;52.088;4.746;2022-09-25T15:53:31;0.93;;;0.32;;
37495;SDS011;23346;52.088;4.746;2022-09-25T15:58:32;3.80;;;0.68;;
37495;SDS011;23346;52.088;4.746;2022-09-25T16:01:01;3.22;;;0.40;;
37495;SDS011;23346;52.088;4.746;2022-09-25T16:03:47;0.82;;;0.40;;
37495;SDS011;23346;52.088;4.746;2022-09-25T16:06:40;0.60;;;0.30;;
37495;SDS011;23346;52.088;4.746;2022-09-25T16:09:27;0.88;;;0.40;;
37495;SDS011;23346;52.088;4.746;2022-09-25T16:14:41;2.47;;;0.35;;
37495;SDS011;23346;52.088;4.746;2022-09-25T16:17:14;1.27;;;0.40;;
37495;SDS011;23346;52.088;4.746;2022-09-25T16:19:40;0.67;;;0.30;;
37495;SDS011;23346;52.088;4.746;2022-09-25T16:22:19;1.38;;;0.40;;
37495;SDS011;23346;52.088;4.746;2022-09-25T16:24:49;0.63;;;0.40;;
37495;SDS011;23346;52.088;4.746;2022-09-25T16:30:17;3.37;;;0.50;;
37495;SDS011;23346;52.088;4.746;2022-09-25T16:32:45;0.97;;;0.47;;
37495;SDS011;23346;52.088;4.746;2022-09-25T16:35:19;1.97;;;0.50;;
37495;SDS011;23346;52.088;4.746;2022-09-25T16:37:48;1.73;;;0.50;;
37495;SDS011;23346;52.088;4.746;2022-09-25T16:40:19;1.43;;;0.40;;
37495;SDS011;23346;52.088;4.746;2022-09-25T16:42:48;1.30;;;0.50;;
37495;SDS011;23346;52.088;4.746;2022-09-25T16:45:25;3.30;;;0.60;;
37495;SDS011;23346;52.088;4.746;2022-09-25T16:47:53;2.37;;;0.50;;
37495;SDS011;23346;52.088;4.746;2022-09-25T16:50:20;1.40;;;0.50;;
37495;SDS011;23346;52.088;4.746;2022-09-25T16:52:47;4.93;;;0.50;;
37495;SDS011;23346;52.088;4.746;2022-09-25T16:55:15;1.40;;;0.50;;
37495;SDS011;23346;52.088;4.746;2022-09-25T16:57:41;4.53;;;0.60;;
37495;SDS011;23346;52.088;4.746;2022-09-25T17:00:29;1.70;;;0.50;;
37495;SDS011;23346;52.088;4.746;2022-09-25T17:02:54;1.37;;;0.60;;
37495;SDS011;23346;52.088;4.746;2022-09-25T17:05:21;2.10;;;1.20;;
37495;SDS011;23346;52.088;4.746;2022-09-25T17:07:51;2.27;;;0.70;;
37495;SDS011;23346;52.088;4.746;2022-09-25T17:10:19;2.07;;;0.70;;
37495;SDS011;23346;52.088;4.746;2022-09-25T17:12:46;2.87;;;0.70;;
37495;SDS011;23346;52.088;4.746;2022-09-25T17:15:18;1.77;;;0.63;;
37495;SDS011;23346;52.088;4.746;2022-09-25T17:17:44;2.57;;;0.87;;
37495;SDS011;23346;52.088;4.746;2022-09-25T17:20:11;2.87;;;0.80;;
37495;SDS011;23346;52.088;4.746;2022-09-25T17:22:37;2.13;;;0.70;;
37495;SDS011;23346;52.088;4.746;2022-09-25T17:25:10;2.77;;;1.40;;
37495;SDS011;23346;52.088;4.746;2022-09-25T17:27:37;9.03;;;1.20;;
37495;SDS011;23346;52.088;4.746;2022-09-25T17:30:03;1.10;;;1.00;;
37495;SDS011;23346;52.088;4.746;2022-09-25T17:32:29;3.40;;;1.47;;
37495;SDS011;23346;52.088;4.746;2022-09-25T17:34:56;2.77;;;1.70;;
37495;SDS011;23346;52.088;4.746;2022-09-25T17:37:22;4.33;;;2.73;;
37495;SDS011;23346;52.088;4.746;2022-09-25T17:39:48;7.00;;;3.60;;
37495;SDS011;23346;52.088;4.746;2022-09-25T17:42:14;5.17;;;2.97;;
37495;SDS011;23346;52.088;4.746;2022-09-25T17:44:41;2.60;;;2.00;;
37495;SDS011;23346;52.088;4.746;2022-09-25T17:47:08;5.47;;;2.07;;
37495;SDS011;23346;52.088;4.746;2022-09-25T17:49:34;6.17;;;2.33;;
37495;SDS011;23346;52.088;4.746;2022-09-25T17:52:01;4.20;;;2.60;;
37495;SDS011;23346;52.088;4.746;2022-09-25T17:54:27;4.40;;;2.30;;
37495;SDS011;23346;52.088;4.746;2022-09-25T17:56:55;7.17;;;3.43;;
37495;SDS011;23346;52.088;4.746;2022-09-25T17:59:21;5.07;;;3.70;;
37495;SDS011;23346;52.088;4.746;2022-09-25T18:01:47;4.80;;;2.60;;
37495;SDS011;23346;52.088;4.746;2022-09-25T18:04:21;4.30;;;2.07;;
37495;SDS011;23346;52.088;4.746;2022-09-25T18:06:48;8.33;;;4.57;;
37495;SDS011;23346;52.088;4.746;2022-09-25T18:09:14;8.73;;;5.40;;
37495;SDS011;23346;52.088;4.746;2022-09-25T18:11:40;16.37;;;7.07;;
37495;SDS011;23346;52.088;4.746;2022-09-25T18:14:08;16.00;;;7.77;;
37495;SDS011;23346;52.088;4.746;2022-09-25T18:16:35;20.63;;;12.00;;
37495;SDS011;23346;52.088;4.746;2022-09-25T18:19:01;21.10;;;12.33;;
37495;SDS011;23346;52.088;4.746;2022-09-25T18:21:45;20.03;;;13.40;;
37495;SDS011;23346;52.088;4.746;2022-09-25T18:24:30;17.47;;;12.17;;
37495;SDS011;23346;52.088;4.746;2022-09-25T18:26:56;11.83;;;7.73;;
37495;SDS011;23346;52.088;4.746;2022-09-25T18:29:22;20.60;;;9.70;;
37495;SDS011;23346;52.088;4.746;2022-09-25T18:31:49;15.33;;;7.57;;
37495;SDS011;23346;52.088;4.746;2022-09-25T18:34:15;10.73;;;5.77;;
37495;SDS011;23346;52.088;4.746;2022-09-25T18:36:42;5.33;;;3.43;;
37495;SDS011;23346;52.088;4.746;2022-09-25T18:39:08;6.07;;;3.13;;
37495;SDS011;23346;52.088;4.746;2022-09-25T18:41:35;7.77;;;2.47;;
37495;SDS011;23346;52.088;4.746;2022-09-25T18:44:01;4.70;;;2.77;;
37495;SDS011;23346;52.088;4.746;2022-09-25T18:46:27;10.30;;;2.83;;
37495;SDS011;23346;52.088;4.746;2022-09-25T18:48:53;6.73;;;2.97;;
37495;SDS011;23346;52.088;4.746;2022-09-25T18:51:21;6.47;;;3.00;;
37495;SDS011;23346;52.088;4.746;2022-09-25T18:53:50;4.90;;;2.20;;
37495;SDS011;23346;52.088;4.746;2022-09-25T18:56:16;5.83;;;2.37;;
37495;SDS011;23346;52.088;4.746;2022-09-25T18:58:43;4.73;;;1.83;;
37495;SDS011;23346;52.088;4.746;2022-09-25T19:01:11;4.77;;;2.20;;
37495;SDS011;23346;52.088;4.746;2022-09-25T19:03:37;3.83;;;1.73;;
37495;SDS011;23346;52.088;4.746;2022-09-25T19:06:03;5.63;;;2.13;;
37495;SDS011;23346;52.088;4.746;2022-09-25T19:08:30;9.03;;;1.87;;
37495;SDS011;23346;52.088;4.746;2022-09-25T19:10:56;4.90;;;1.70;;
37495;SDS011;23346;52.088;4.746;2022-09-25T19:13:23;4.70;;;1.70;;
37495;SDS011;23346;52.088;4.746;2022-09-25T19:15:51;2.63;;;1.50;;
37495;SDS011;23346;52.088;4.746;2022-09-25T19:18:17;5.07;;;1.63;;
37495;SDS011;23346;52.088;4.746;2022-09-25T19:20:47;6.93;;;1.60;;
37495;SDS011;23346;52.088;4.746;2022-09-25T19:23:17;5.90;;;1.77;;
37495;SDS011;23346;52.088;4.746;2022-09-25T19:26:02;5.80;;;2.07;;
37495;SDS011;23346;52.088;4.746;2022-09-25T19:28:29;3.90;;;1.90;;
37495;SDS011;23346;52.088;4.746;2022-09-25T19:30:59;11.40;;;3.13;;
37495;SDS011;23346;52.088;4.746;2022-09-25T19:33:29;4.13;;;2.30;;
37495;SDS011;23346;52.088;4.746;2022-09-25T19:36:00;5.80;;;3.17;;
37495;SDS011;23346;52.088;4.746;2022-09-25T19:38:33;8.37;;;3.80;;
37495;SDS011;23346;52.088;4.746;2022-09-25T19:40:59;6.27;;;3.30;;
37495;SDS011;23346;52.088;4.746;2022-09-25T19:43:26;7.53;;;3.30;;
37495;SDS011;23346;52.088;4.746;2022-09-25T19:45:52;4.80;;;2.90;;
37495;SDS011;23346;52.088;4.746;2022-09-25T19:48:19;6.93;;;3.10;;
37495;SDS011;23346;52.088;4.746;2022-09-25T19:50:46;9.53;;;2.90;;
37495;SDS011;23346;52.088;4.746;2022-09-25T19:53:12;6.03;;;3.00;;
37495;SDS011;23346;52.088;4.746;2022-09-25T19:55:38;6.10;;;2.70;;
37495;SDS011;23346;52.088;4.746;2022-09-25T19:58:09;9.93;;;2.90;;
37495;SDS011;23346;52.088;4.746;2022-09-25T20:00:38;9.10;;;3.03;;
37495;SDS011;23346;52.088;4.746;2022-09-25T20:03:05;10.57;;;3.27;;
37495;SDS011;23346;52.088;4.746;2022-09-25T20:05:35;9.83;;;4.10;;
37495;SDS011;23346;52.088;4.746;2022-09-25T20:08:01;9.27;;;4.93;;
37495;SDS011;23346;52.088;4.746;2022-09-25T20:10:28;11.50;;;5.30;;
37495;SDS011;23346;52.088;4.746;2022-09-25T20:12:54;12.37;;;5.73;;
37495;SDS011;23346;52.088;4.746;2022-09-25T20:15:20;8.43;;;6.53;;
37495;SDS011;23346;52.088;4.746;2022-09-25T20:17:46;14.23;;;8.07;;
37495;SDS011;23346;52.088;4.746;2022-09-25T20:20:13;16.67;;;8.73;;
37495;SDS011;23346;52.088;4.746;2022-09-25T20:22:39;20.63;;;9.07;;
37495;SDS011;23346;52.088;4.746;2022-09-25T20:25:05;18.10;;;8.90;;
37495;SDS011;23346;52.088;4.746;2022-09-25T20:27:31;13.17;;;6.43;;
37495;SDS011;23346;52.088;4.746;2022-09-25T20:29:57;10.00;;;6.13;;
37495;SDS011;23346;52.088;4.746;2022-09-25T20:32:23;14.33;;;4.83;;
37495;SDS011;23346;52.088;4.746;2022-09-25T20:34:49;11.60;;;5.03;;
37495;SDS011;23346;52.088;4.746;2022-09-25T20:37:15;11.27;;;4.63;;
37495;SDS011;23346;52.088;4.746;2022-09-25T20:39:41;13.63;;;5.17;;
37495;SDS011;23346;52.088;4.746;2022-09-25T20:42:08;11.37;;;5.27;;
37495;SDS011;23346;52.088;4.746;2022-09-25T20:44:34;7.87;;;4.60;;
37495;SDS011;23346;52.088;4.746;2022-09-25T20:47:00;15.07;;;5.23;;
37495;SDS011;23346;52.088;4.746;2022-09-25T20:49:26;7.80;;;4.13;;
37495;SDS011;23346;52.088;4.746;2022-09-25T20:51:52;11.47;;;5.13;;
37495;SDS011;23346;52.088;4.746;2022-09-25T20:54:18;9.30;;;4.37;;
37495;SDS011;23346;52.088;4.746;2022-09-25T20:56:49;8.10;;;4.27;;
37495;SDS011;23346;52.088;4.746;2022-09-25T20:59:16;13.93;;;4.20;;
37495;SDS011;23346;52.088;4.746;2022-09-25T21:01:42;7.87;;;4.03;;
37495;SDS011;23346;52.088;4.746;2022-09-25T21:04:08;6.40;;;4.00;;
37495;SDS011;23346;52.088;4.746;2022-09-25T21:06:35;14.30;;;4.17;;
37495;SDS011;23346;52.088;4.746;2022-09-25T21:09:03;6.67;;;3.80;;
37495;SDS011;23346;52.088;4.746;2022-09-25T21:11:29;7.43;;;4.27;;
37495;SDS011;23346;52.088;4.746;2022-09-25T21:13:57;7.23;;;4.00;;
37495;SDS011;23346;52.088;4.746;2022-09-25T21:16:24;12.43;;;3.90;;
37495;SDS011;23346;52.088;4.746;2022-09-25T21:18:52;12.60;;;4.83;;
37495;SDS011;23346;52.088;4.746;2022-09-25T21:21:18;10.87;;;3.97;;
37495;SDS011;23346;52.088;4.746;2022-09-25T21:23:46;8.77;;;3.53;;
37495;SDS011;23346;52.088;4.746;2022-09-25T21:26:13;7.77;;;3.63;;
37495;SDS011;23346;52.088;4.746;2022-09-25T21:28:41;8.20;;;3.90;;
37495;SDS011;23346;52.088;4.746;2022-09-25T21:31:11;9.93;;;4.87;;
37495;SDS011;23346;52.088;4.746;2022-09-25T21:33:38;12.13;;;4.23;;
37495;SDS011;23346;52.088;4.746;2022-09-25T21:36:04;9.53;;;3.73;;
37495;SDS011;23346;52.088;4.746;2022-09-25T21:38:30;9.37;;;3.80;;
37495;SDS011;23346;52.088;4.746;2022-09-25T21:40:57;7.87;;;3.50;;
37495;SDS011;23346;52.088;4.746;2022-09-25T21:43:24;7.67;;;3.43;;
37495;SDS011;23346;52.088;4.746;2022-09-25T21:45:50;6.83;;;3.33;;
37495;SDS011;23346;52.088;4.746;2022-09-25T21:48:17;8.90;;;3.37;;
37495;SDS011;23346;52.088;4.746;2022-09-25T21:50:54;6.60;;;3.67;;
37495;SDS011;23346;52.088;4.746;2022-09-25T21:53:21;10.33;;;3.30;;
37495;SDS011;23346;52.088;4.746;2022-09-25T21:55:47;6.60;;;3.23;;
37495;SDS011;23346;52.088;4.746;2022-09-25T21:58:13;5.87;;;3.40;;
37495;SDS011;23346;52.088;4.746;2022-09-25T22:00:40;8.23;;;3.30;;
37495;SDS011;23346;52.088;4.746;2022-09-25T22:03:06;7.03;;;3.30;;
37495;SDS011;23346;52.088;4.746;2022-09-25T22:05:33;5.97;;;2.90;;
37495;SDS011;23346;52.088;4.746;2022-09-25T22:07:59;5.43;;;2.97;;
37495;SDS011;23346;52.088;4.746;2022-09-25T22:10:25;6.57;;;3.23;;
37495;SDS011;23346;52.088;4.746;2022-09-25T22:12:51;6.57;;;3.00;;
37495;SDS011;23346;52.088;4.746;2022-09-25T22:15:18;4.90;;;2.27;;
37495;SDS011;23346;52.088;4.746;2022-09-25T22:17:44;4.70;;;2.57;;
37495;SDS011;23346;52.088;4.746;2022-09-25T22:20:10;4.80;;;2.80;;
37495;SDS011;23346;52.088;4.746;2022-09-25T22:22:36;6.93;;;2.80;;
37495;SDS011;23346;52.088;4.746;2022-09-25T22:25:02;6.07;;;2.80;;
37495;SDS011;23346;52.088;4.746;2022-09-25T22:27:28;4.97;;;2.73;;
37495;SDS011;23346;52.088;4.746;2022-09-25T22:29:54;5.77;;;2.37;;
37495;SDS011;23346;52.088;4.746;2022-09-25T22:32:20;4.17;;;2.40;;
37495;SDS011;23346;52.088;4.746;2022-09-25T22:34:46;6.23;;;2.60;;
37495;SDS011;23346;52.088;4.746;2022-09-25T22:37:12;6.00;;;2.27;;
37495;SDS011;23346;52.088;4.746;2022-09-25T22:39:38;8.87;;;2.90;;
37495;SDS011;23346;52.088;4.746;2022-09-25T22:42:05;5.23;;;2.80;;
37495;SDS011;23346;52.088;4.746;2022-09-25T22:44:31;7.03;;;2.80;;
37495;SDS011;23346;52.088;4.746;2022-09-25T22:46:57;8.40;;;2.50;;
37495;SDS011;23346;52.088;4.746;2022-09-25T22:49:23;5.77;;;2.70;;
37495;SDS011;23346;52.088;4.746;2022-09-25T22:51:49;6.47;;;2.53;;
37495;SDS011;23346;52.088;4.746;2022-09-25T22:54:15;6.27;;;2.97;;
37495;SDS011;23346;52.088;4.746;2022-09-25T22:56:41;10.63;;;3.07;;
37495;SDS011;23346;52.088;4.746;2022-09-25T22:59:09;2.97;;;2.30;;
37495;SDS011;23346;52.088;4.746;2022-09-25T23:01:43;6.40;;;2.97;;
37495;SDS011;23346;52.088;4.746;2022-09-25T23:04:11;5.93;;;2.90;;
37495;SDS011;23346;52.088;4.746;2022-09-25T23:06:37;8.70;;;3.40;;
37495;SDS011;23346;52.088;4.746;2022-09-25T23:09:05;5.17;;;2.77;;
37495;SDS011;23346;52.088;4.746;2022-09-25T23:11:32;6.73;;;3.07;;
37495;SDS011;23346;52.088;4.746;2022-09-25T23:14:02;8.57;;;3.03;;
37495;SDS011;23346;52.088;4.746;2022-09-25T23:16:29;11.50;;;3.63;;
37495;SDS011;23346;52.088;4.746;2022-09-25T23:18:56;4.87;;;2.50;;
37495;SDS011;23346;52.088;4.746;2022-09-25T23:21:22;13.17;;;3.43;;
37495;SDS011;23346;52.088;4.746;2022-09-25T23:23:48;6.83;;;3.20;;
37495;SDS011;23346;52.088;4.746;2022-09-25T23:26:14;7.73;;;3.83;;
37495;SDS011;23346;52.088;4.746;2022-09-25T23:28:40;7.83;;;3.10;;
37495;SDS011;23346;52.088;4.746;2022-09-25T23:31:07;6.27;;;2.90;;
37495;SDS011;23346;52.088;4.746;2022-09-25T23:33:33;10.97;;;3.07;;
37495;SDS011;23346;52.088;4.746;2022-09-25T23:36:01;9.07;;;2.37;;
37495;SDS011;23346;52.088;4.746;2022-09-25T23:38:27;9.80;;;2.70;;
37495;SDS011;23346;52.088;4.746;2022-09-25T23:40:53;6.33;;;2.57;;
37495;SDS011;23346;52.088;4.746;2022-09-25T23:43:19;5.17;;;3.40;;
37495;SDS011;23346;52.088;4.746;2022-09-25T23:45:45;5.97;;;2.63;;
37495;SDS011;23346;52.088;4.746;2022-09-25T23:48:12;12.53;;;3.20;;
37495;SDS011;23346;52.088;4.746;2022-09-25T23:50:40;7.67;;;2.67;;
37495;SDS011;23346;52.088;4.746;2022-09-25T23:53:06;7.57;;;2.40;;
37495;SDS011;23346;52.088;4.746;2022-09-25T23:55:32;3.73;;;2.20;;
37495;SDS011;23346;52.088;4.746;2022-09-25T23:58:02;4.60;;;2.00;;
